createdAt,value
2019-03-13T00:02:15.714Z,5.40
2019-03-13T00:04:48.284Z,5.20
2019-03-13T00:07:18.397Z,5.30
2019-03-13T00:09:48.479Z,5.40
2019-03-13T00:12:20.873Z,5.50
2019-03-13T00:14:51.970Z,5.50
2019-03-13T00:17:24.500Z,5.40
2019-03-13T00:19:58.208Z,5.40
2019-03-13T00:22:31.008Z,5.30
2019-03-13T00:25:01.139Z,5.30
2019-03-13T00:27:31.292Z,5.20
2019-03-13T00:30:01.292Z,5.10
2019-03-13T00:32:31.421Z,5.10
2019-03-13T00:35:03.200Z,5.10
2019-03-13T00:37:33.340Z,5.00
2019-03-13T00:40:05.101Z,5.00
2019-03-13T00:42:36.261Z,5.00
2019-03-13T00:45:08.999Z,4.90
2019-03-13T00:47:44.992Z,5.00
2019-03-13T00:50:26.807Z,5.10
2019-03-13T00:53:04.227Z,5.10
2019-03-13T00:55:34.309Z,5.20
2019-03-13T00:58:07.265Z,5.20
2019-03-13T01:01:09.830Z,5.10
2019-03-13T01:04:00.841Z,5.10
2019-03-13T01:06:37.001Z,5.10
2019-03-13T01:09:07.820Z,5.10
2019-03-13T01:11:39.821Z,5.30
2019-03-13T01:14:11.231Z,5.30
2019-03-13T01:16:42.411Z,5.30
2019-03-13T01:19:14.939Z,5.40
2019-03-13T01:21:44.287Z,5.40
2019-03-13T01:24:14.438Z,5.40
2019-03-13T01:26:46.075Z,5.50
2019-03-13T01:29:17.218Z,5.50
2019-03-13T01:32:15.248Z,5.30
2019-03-13T01:34:54.718Z,5.20
2019-03-13T01:37:27.588Z,5.20
2019-03-13T01:40:00.375Z,5.10
2019-03-13T01:42:30.676Z,4.90
2019-03-13T01:45:02.323Z,4.80
2019-03-13T01:47:32.271Z,4.90
2019-03-13T01:50:02.336Z,4.90
2019-03-13T01:52:33.556Z,4.90
2019-03-13T01:55:04.961Z,5.00
2019-03-13T01:57:36.028Z,5.00
2019-03-13T02:00:07.276Z,5.00
2019-03-13T02:02:37.270Z,4.90
2019-03-13T02:05:08.459Z,4.80
2019-03-13T02:07:40.498Z,4.70
2019-03-13T02:10:19.916Z,4.80
2019-03-13T02:12:51.694Z,5.00
2019-03-13T02:15:25.288Z,5.50
2019-03-13T02:17:55.452Z,5.70
2019-03-13T02:20:25.590Z,6.20
2019-03-13T02:22:55.728Z,6.80
2019-03-13T02:25:25.721Z,7.10
2019-03-13T02:27:55.803Z,7.40
2019-03-13T02:30:29.975Z,7.50
2019-03-13T02:33:02.226Z,7.60
2019-03-13T02:35:36.415Z,7.80
2019-03-13T02:38:10.892Z,8.00
2019-03-13T02:40:44.033Z,8.10
2019-03-13T02:43:14.112Z,8.10
2019-03-13T02:45:45.333Z,8.20
2019-03-13T02:48:17.160Z,8.20
2019-03-13T02:50:48.994Z,8.20
2019-03-13T02:53:22.827Z,8.10
2019-03-13T02:55:56.011Z,8.10
2019-03-13T02:58:30.593Z,8.10
2019-03-13T03:01:12.845Z,8.10
2019-03-13T03:03:47.086Z,8.10
2019-03-13T03:06:20.613Z,8.10
2019-03-13T03:08:52.561Z,8.20
2019-03-13T03:11:22.688Z,8.20
2019-03-13T03:13:56.608Z,8.30
2019-03-13T03:16:29.162Z,8.30
2019-03-13T03:18:58.996Z,8.20
2019-03-13T03:21:38.008Z,8.00
2019-03-13T03:24:09.809Z,7.90
2019-03-13T03:26:40.167Z,7.90
2019-03-13T03:29:12.634Z,7.90
2019-03-13T03:31:45.539Z,7.90
2019-03-13T03:34:15.598Z,7.80
2019-03-13T03:36:45.584Z,7.90
2019-03-13T03:39:15.653Z,7.90
2019-03-13T03:41:46.266Z,7.90
2019-03-13T03:44:17.930Z,7.80
2019-03-13T03:46:49.608Z,7.70
2019-03-13T03:49:21.635Z,7.70
2019-03-13T03:51:51.370Z,7.60
2019-03-13T03:54:22.722Z,7.60
2019-03-13T03:56:54.290Z,7.60
2019-03-13T03:59:25.356Z,7.50
2019-03-13T04:01:55.319Z,7.20
2019-03-13T04:04:25.436Z,7.10
2019-03-13T04:07:01.259Z,6.90
2019-03-13T04:09:31.322Z,6.80
2019-03-13T04:12:01.324Z,6.70
2019-03-13T04:14:34.623Z,6.70
2019-03-13T04:17:06.003Z,6.60
2019-03-13T04:19:37.765Z,6.50
2019-03-13T04:22:09.080Z,6.30
2019-03-13T04:24:39.068Z,6.30
2019-03-13T04:27:09.145Z,6.10
2019-03-13T04:29:41.175Z,6.00
2019-03-13T04:32:10.994Z,5.90
2019-03-13T04:34:41.061Z,5.90
2019-03-13T04:37:16.115Z,5.90
2019-03-13T04:39:43.979Z,5.80
2019-03-13T04:42:15.124Z,5.70
2019-03-13T04:44:45.105Z,5.70
2019-03-13T04:47:15.166Z,5.70
2019-03-13T04:49:45.234Z,5.80
2019-03-13T04:52:18.000Z,5.70
2019-03-13T04:54:50.010Z,5.80
2019-03-13T04:57:20.962Z,5.70
2019-03-13T04:59:57.240Z,5.80
2019-03-13T05:02:27.369Z,5.70
2019-03-13T05:04:57.364Z,5.70
2019-03-13T05:07:28.642Z,5.70
2019-03-13T05:10:00.375Z,5.80
2019-03-13T05:12:32.966Z,5.80
2019-03-13T05:15:02.304Z,5.80
2019-03-13T05:17:35.235Z,5.80
2019-03-13T05:20:06.184Z,5.80
2019-03-13T05:22:39.534Z,5.90
2019-03-13T05:25:11.266Z,5.90
2019-03-13T05:27:41.430Z,5.90
2019-03-13T05:30:11.811Z,5.90
2019-03-13T05:32:42.253Z,5.80
2019-03-13T05:35:14.310Z,5.90
2019-03-13T05:37:44.163Z,5.80
2019-03-13T05:40:19.268Z,6.00
2019-03-13T05:42:49.279Z,6.00
2019-03-13T05:45:19.275Z,6.00
2019-03-13T05:47:50.543Z,6.00
2019-03-13T05:50:26.437Z,5.90
2019-03-13T05:52:59.401Z,5.90
2019-03-13T05:55:32.861Z,5.80
2019-03-13T05:58:03.797Z,5.80
2019-03-13T06:00:37.906Z,5.90
2019-03-13T06:03:08.046Z,6.00
2019-03-13T06:05:38.055Z,5.90
2019-03-13T06:08:08.128Z,5.90
2019-03-13T06:10:38.113Z,5.90
2019-03-13T06:13:08.345Z,5.90
2019-03-13T06:15:41.593Z,5.90
2019-03-13T06:18:11.643Z,5.90
2019-03-13T06:20:41.721Z,6.00
2019-03-13T06:23:14.177Z,6.10
2019-03-13T06:25:43.441Z,6.10
2019-03-13T06:28:17.617Z,6.00
2019-03-13T06:30:50.429Z,6.10
2019-03-13T06:33:23.552Z,6.00
2019-03-13T06:35:53.389Z,6.20
2019-03-13T06:38:23.474Z,6.20
2019-03-13T06:40:57.882Z,6.20
2019-03-13T06:43:29.155Z,6.20
2019-03-13T06:46:00.389Z,6.20
2019-03-13T06:48:30.396Z,6.10
2019-03-13T06:51:02.087Z,6.10
2019-03-13T06:53:33.268Z,5.90
2019-03-13T06:56:05.558Z,5.70
2019-03-13T06:59:03.866Z,5.70
2019-03-13T07:01:43.420Z,5.60
2019-03-13T07:04:40.637Z,5.70
2019-03-13T07:07:28.665Z,5.60
2019-03-13T07:10:16.708Z,5.60
2019-03-13T07:12:56.484Z,5.80
2019-03-13T07:15:38.321Z,5.70
2019-03-13T07:18:32.526Z,5.70
2019-03-13T07:21:23.523Z,5.80
2019-03-13T07:24:18.393Z,5.80
2019-03-13T07:27:10.647Z,5.90
2019-03-13T07:30:05.331Z,5.70
2019-03-13T07:32:48.634Z,5.60
2019-03-13T07:35:30.579Z,5.40
2019-03-13T07:38:22.579Z,5.30
2019-03-13T07:41:11.596Z,5.30
2019-03-13T07:44:15.968Z,5.30
2019-03-13T07:47:03.956Z,5.20
2019-03-13T07:49:52.978Z,5.10
2019-03-13T07:52:41.988Z,5.20
2019-03-13T07:55:24.431Z,5.20
2019-03-13T07:58:13.597Z,5.30
2019-03-13T08:01:01.546Z,5.40
2019-03-13T08:03:37.842Z,5.50
2019-03-13T08:06:25.559Z,5.60
2019-03-13T08:09:13.297Z,5.70
2019-03-13T08:12:01.287Z,5.90
2019-03-13T08:14:43.933Z,5.80
2019-03-13T08:17:32.394Z,5.60
2019-03-13T08:20:28.213Z,5.80
2019-03-13T08:23:16.021Z,6.20
2019-03-13T08:26:03.753Z,7.10
2019-03-13T08:28:42.782Z,8.40
2019-03-13T08:31:27.451Z,9.70
2019-03-13T08:34:34.680Z,10.80
2019-03-13T08:37:22.427Z,11.50
2019-03-13T08:40:17.373Z,10.70
2019-03-13T08:43:06.728Z,9.80
2019-03-13T08:45:58.837Z,10.10
2019-03-13T08:48:39.421Z,10.60
2019-03-13T08:51:20.394Z,11.50
2019-03-13T08:54:12.230Z,12.00
2019-03-13T08:57:13.193Z,12.30
2019-03-13T08:59:54.143Z,13.70
2019-03-13T09:02:43.173Z,16.10
2019-03-13T09:05:35.197Z,16.50
2019-03-13T09:08:25.244Z,15.00
2019-03-13T09:11:01.788Z,12.80
2019-03-13T09:13:47.524Z,11.10
2019-03-13T09:16:27.924Z,11.10
2019-03-13T09:19:15.964Z,10.70
2019-03-13T09:22:05.011Z,10.30
2019-03-13T09:25:12.944Z,12.50
2019-03-13T09:28:05.094Z,14.70
2019-03-13T09:30:54.141Z,17.40
2019-03-13T09:33:30.926Z,18.20
2019-03-13T09:36:18.232Z,17.90
2019-03-13T09:39:05.946Z,19.30
2019-03-13T09:41:43.044Z,18.50
2019-03-13T09:44:28.761Z,16.90
2019-03-13T09:47:17.866Z,15.90
2019-03-13T09:50:19.039Z,13.90
2019-03-13T09:53:01.353Z,13.40
2019-03-13T09:55:50.392Z,11.60
2019-03-13T09:58:42.195Z,11.00
2019-03-13T10:01:34.392Z,11.20
2019-03-13T10:04:13.311Z,12.50
2019-03-13T10:07:01.253Z,13.80
2019-03-13T10:09:44.475Z,16.00
2019-03-13T10:12:22.963Z,15.20
2019-03-13T10:15:07.657Z,16.00
2019-03-13T10:18:09.088Z,17.00
2019-03-13T10:21:03.981Z,16.70
2019-03-13T10:23:58.599Z,15.70
2019-03-13T10:26:47.703Z,13.90
2019-03-13T10:29:24.042Z,13.30
2019-03-13T10:32:22.501Z,12.00
2019-03-13T10:35:01.435Z,11.30
2019-03-13T10:37:42.225Z,10.60
2019-03-13T10:40:45.741Z,10.50
2019-03-13T10:43:35.383Z,10.70
2019-03-13T10:46:13.961Z,10.80
2019-03-13T10:49:06.145Z,11.10
2019-03-13T10:51:45.231Z,11.00
2019-03-13T10:54:52.791Z,11.20
2019-03-13T10:58:00.295Z,10.80
2019-03-13T11:00:38.610Z,10.80
2019-03-13T11:03:18.808Z,12.90
2019-03-13T11:06:01.729Z,13.60
2019-03-13T11:08:53.529Z,12.80
2019-03-13T11:11:35.118Z,12.40
2019-03-13T11:14:15.778Z,12.10
2019-03-13T11:16:52.792Z,12.00
2019-03-13T11:19:28.736Z,11.50
2019-03-13T11:22:22.185Z,11.20
2019-03-13T11:25:26.570Z,10.60
2019-03-13T11:28:07.012Z,10.10
2019-03-13T11:31:05.012Z,10.10
2019-03-13T11:33:53.076Z,10.10
2019-03-13T11:36:51.222Z,10.00
2019-03-13T11:39:31.942Z,10.10
2019-03-13T11:42:10.958Z,10.20
2019-03-13T11:44:51.313Z,10.40
2019-03-13T11:47:42.896Z,10.40
2019-03-13T11:50:27.553Z,10.70
2019-03-13T11:53:29.012Z,10.50
2019-03-13T11:56:30.226Z,11.20
2019-03-13T11:59:18.245Z,11.60
2019-03-13T12:02:10.520Z,11.40
2019-03-13T12:07:31.397Z,10.90
2019-03-13T12:10:19.341Z,10.60
2019-03-13T12:13:10.278Z,10.50
2019-03-13T12:15:45.466Z,10.30
2019-03-13T12:18:41.927Z,10.30
2019-03-13T12:21:37.137Z,10.40
2019-03-13T12:24:25.155Z,10.30
2019-03-13T12:27:18.819Z,10.20
2019-03-13T12:30:17.052Z,9.90
2019-03-13T12:33:06.111Z,9.80
2019-03-13T12:36:04.440Z,10.00
2019-03-13T12:38:43.140Z,10.30
2019-03-13T12:41:40.257Z,10.20
2019-03-13T12:44:34.396Z,10.30
2019-03-13T12:47:23.367Z,10.70
2019-03-13T12:50:16.717Z,10.80
2019-03-13T12:53:08.533Z,11.10
2019-03-13T12:55:56.552Z,10.80
2019-03-13T12:58:44.561Z,10.80
2019-03-13T13:01:37.228Z,10.60
2019-03-13T13:04:14.887Z,10.50
2019-03-13T13:07:00.644Z,10.70
2019-03-13T13:09:49.689Z,10.70
2019-03-13T13:12:36.503Z,11.10
2019-03-13T13:15:37.551Z,10.70
2019-03-13T13:18:34.215Z,10.10
2019-03-13T13:21:04.476Z,9.70
2019-03-13T13:23:34.541Z,9.60
2019-03-13T13:26:09.443Z,9.60
2019-03-13T13:28:38.333Z,9.40
2019-03-13T13:31:08.447Z,9.10
2019-03-13T13:33:38.621Z,9.00
2019-03-13T13:36:08.756Z,9.20
2019-03-13T13:38:38.770Z,9.50
2019-03-13T13:43:39.535Z,9.80
2019-03-13T13:46:23.532Z,10.00
2019-03-13T13:48:55.195Z,10.00
2019-03-13T13:51:27.188Z,10.40
2019-03-13T13:53:57.048Z,10.70
2019-03-13T13:59:01.188Z,10.20
2019-03-13T14:01:32.849Z,10.10
2019-03-13T14:04:05.956Z,9.70
2019-03-13T14:06:37.646Z,9.60
2019-03-13T14:09:09.332Z,9.30
2019-03-13T14:11:40.494Z,9.00
2019-03-13T14:14:10.562Z,9.00
2019-03-13T14:16:42.304Z,8.80
2019-03-13T14:19:12.336Z,8.80
2019-03-13T14:21:42.356Z,8.60
2019-03-13T14:24:13.501Z,8.50
2019-03-13T14:26:46.862Z,8.40
2019-03-13T14:29:18.849Z,8.30
2019-03-13T14:31:50.149Z,8.20
2019-03-13T14:34:21.830Z,8.30
2019-03-13T14:36:52.978Z,8.40
2019-03-13T14:39:28.432Z,8.40
2019-03-13T14:41:57.784Z,8.30
2019-03-13T14:44:27.853Z,8.40
2019-03-13T14:46:57.992Z,8.50
2019-03-13T14:49:31.089Z,8.50
2019-03-13T14:52:02.353Z,8.50
2019-03-13T14:54:38.484Z,8.50
2019-03-13T14:57:08.499Z,8.40
2019-03-13T14:59:38.542Z,8.20
2019-03-13T15:04:37.965Z,8.10
2019-03-13T15:07:08.049Z,8.00
2019-03-13T15:09:39.476Z,8.10
2019-03-13T15:12:12.654Z,8.20
2019-03-13T15:14:42.720Z,8.00
2019-03-13T15:17:12.817Z,7.80
2019-03-13T15:19:44.826Z,7.50
2019-03-13T15:22:18.981Z,7.40
2019-03-13T15:24:50.001Z,7.40
2019-03-13T15:27:20.091Z,7.10
2019-03-13T15:29:50.234Z,7.00
2019-03-13T15:32:20.272Z,7.10
2019-03-13T15:34:50.383Z,7.20
2019-03-13T15:37:22.218Z,7.30
2019-03-13T15:39:52.243Z,7.30
2019-03-13T15:42:22.357Z,7.30
2019-03-13T15:44:52.429Z,7.40
2019-03-13T15:47:22.627Z,7.50
2019-03-13T15:49:52.988Z,7.30
2019-03-13T15:52:23.099Z,7.50
2019-03-13T15:54:53.229Z,7.70
2019-03-13T15:57:23.313Z,7.80
2019-03-13T15:59:53.444Z,7.70
2019-03-13T16:02:26.427Z,7.50
2019-03-13T16:04:56.520Z,7.40
2019-03-13T16:07:26.746Z,7.20
2019-03-13T16:09:56.860Z,7.30
2019-03-13T16:12:26.972Z,7.30
2019-03-13T16:15:00.482Z,7.30
2019-03-13T16:17:30.671Z,7.20
2019-03-13T16:20:03.848Z,7.00
2019-03-13T16:22:33.940Z,6.80
2019-03-13T16:25:04.467Z,6.60
2019-03-13T16:27:34.547Z,6.60
2019-03-13T16:30:06.346Z,6.50
2019-03-13T16:32:43.970Z,6.40
2019-03-13T16:35:08.578Z,6.40
2019-03-13T16:37:38.692Z,6.30
2019-03-13T16:40:14.540Z,6.20
2019-03-13T16:42:44.895Z,6.30
2019-03-13T16:45:18.230Z,6.50
2019-03-13T16:47:48.339Z,6.60
2019-03-13T16:50:19.730Z,6.40
2019-03-13T16:52:50.478Z,6.30
2019-03-13T16:55:20.611Z,6.10
2019-03-13T16:57:51.913Z,5.90
2019-03-13T17:00:23.418Z,5.80
2019-03-13T17:02:53.984Z,5.70
2019-03-13T17:05:26.982Z,5.60
2019-03-13T17:07:59.754Z,5.40
2019-03-13T17:10:30.224Z,5.20
2019-03-13T17:13:05.179Z,5.00
2019-03-13T17:15:40.662Z,5.00
2019-03-13T17:18:12.550Z,4.90
2019-03-13T17:20:42.668Z,4.80
2019-03-13T17:23:14.530Z,4.80
2019-03-13T17:25:49.805Z,4.90
2019-03-13T17:28:23.921Z,4.80
2019-03-13T17:30:55.820Z,4.80
2019-03-13T17:33:25.897Z,4.80
2019-03-13T17:35:57.823Z,4.80
2019-03-13T17:38:27.964Z,4.70
2019-03-13T17:40:58.101Z,4.70
2019-03-13T17:43:38.585Z,4.80
2019-03-13T17:46:00.179Z,4.70
2019-03-13T17:48:31.987Z,4.70
2019-03-13T17:51:02.098Z,4.60
2019-03-13T17:53:32.225Z,4.70
2019-03-13T17:56:05.165Z,4.70
2019-03-13T17:58:35.278Z,4.60
2019-03-13T18:01:07.131Z,4.60
2019-03-13T18:03:39.465Z,4.60
2019-03-13T18:06:13.410Z,4.60
2019-03-13T18:08:44.688Z,4.50
2019-03-13T18:11:17.883Z,4.40
2019-03-13T18:13:47.954Z,4.40
2019-03-13T18:16:18.120Z,4.50
2019-03-13T18:18:48.216Z,4.40
2019-03-13T18:21:20.039Z,4.30
2019-03-13T18:23:50.107Z,4.20
2019-03-13T18:26:20.590Z,4.10
2019-03-13T18:28:50.588Z,4.10
2019-03-13T18:31:20.687Z,4.10
2019-03-13T18:33:50.793Z,4.20
2019-03-13T18:36:21.040Z,4.20
2019-03-13T18:38:51.128Z,4.30
2019-03-13T18:41:24.606Z,4.30
2019-03-13T18:43:55.936Z,4.30
2019-03-13T18:46:32.937Z,4.40
2019-03-13T18:49:03.084Z,4.50
2019-03-13T18:51:36.181Z,4.50
2019-03-13T18:54:06.336Z,4.50
2019-03-13T18:56:38.564Z,4.60
2019-03-13T18:59:08.474Z,4.60
2019-03-13T19:01:38.542Z,4.60
2019-03-13T19:04:08.698Z,4.70
2019-03-13T19:06:38.787Z,4.70
2019-03-13T19:09:08.864Z,4.60
2019-03-13T19:11:39.094Z,4.60
2019-03-13T19:14:09.276Z,4.60
2019-03-13T19:16:39.460Z,4.60
2019-03-13T19:19:09.873Z,4.50
2019-03-13T19:21:40.794Z,4.60
2019-03-13T19:24:12.689Z,4.60
2019-03-13T19:26:42.700Z,4.60
2019-03-13T19:29:12.900Z,4.60
2019-03-13T19:31:42.989Z,4.70
2019-03-13T19:34:13.039Z,4.70
2019-03-13T19:36:43.219Z,4.70
2019-03-13T19:39:13.322Z,4.70
2019-03-13T19:41:43.561Z,4.70
2019-03-13T19:44:13.672Z,4.70
2019-03-13T19:46:43.803Z,4.70
2019-03-13T19:49:13.942Z,4.70
2019-03-13T19:51:43.928Z,4.60
2019-03-13T19:54:14.283Z,4.60
2019-03-13T19:56:44.537Z,4.70
2019-03-13T19:59:14.807Z,4.70
2019-03-13T20:01:45.012Z,4.70
2019-03-13T20:04:15.224Z,4.70
2019-03-13T20:06:45.382Z,4.60
2019-03-13T20:09:15.610Z,4.60
2019-03-13T20:11:45.678Z,4.60
2019-03-13T20:14:15.788Z,4.60
2019-03-13T20:16:46.732Z,4.60
2019-03-13T20:19:17.048Z,4.70
2019-03-13T20:21:47.265Z,4.70
2019-03-13T20:24:17.364Z,4.70
2019-03-13T20:29:17.739Z,4.70
2019-03-13T20:31:47.963Z,4.70
2019-03-13T20:34:18.054Z,4.70
2019-03-13T20:36:48.180Z,4.70
2019-03-13T20:39:18.364Z,4.80
2019-03-13T20:41:48.465Z,4.80
2019-03-13T20:44:18.858Z,4.80
2019-03-13T20:46:50.563Z,4.90
2019-03-13T20:49:20.715Z,4.90
2019-03-13T20:51:50.794Z,5.00
2019-03-13T20:54:20.827Z,5.00
2019-03-13T20:56:50.920Z,5.00
2019-03-13T20:59:20.996Z,5.20
2019-03-13T21:01:51.062Z,5.20
2019-03-13T21:04:21.824Z,5.20
2019-03-13T21:06:51.960Z,5.20
2019-03-13T21:09:22.045Z,5.30
2019-03-13T21:11:52.195Z,5.30
2019-03-13T21:14:22.403Z,5.30
2019-03-13T21:16:52.474Z,5.40
2019-03-13T21:19:22.585Z,5.40
2019-03-13T21:21:53.920Z,5.50
2019-03-13T21:24:27.858Z,5.60
2019-03-13T21:26:57.923Z,5.50
2019-03-13T21:29:27.965Z,5.60
2019-03-13T21:31:57.969Z,5.70
2019-03-13T21:34:29.420Z,5.70
2019-03-13T21:36:59.583Z,5.70
2019-03-13T21:39:29.592Z,5.60
2019-03-13T21:42:04.106Z,5.60
2019-03-13T21:44:34.240Z,5.60
2019-03-13T21:47:04.337Z,5.70
2019-03-13T21:49:34.432Z,5.60
2019-03-13T21:52:04.459Z,5.60
2019-03-13T21:54:38.714Z,5.70
2019-03-13T21:57:10.537Z,5.60
2019-03-13T21:59:43.469Z,5.60
2019-03-13T22:02:15.009Z,5.60
2019-03-13T22:04:45.108Z,5.60
2019-03-13T22:07:15.225Z,5.60
2019-03-13T22:09:45.791Z,5.50
2019-03-13T22:12:17.379Z,5.30
2019-03-13T22:14:47.522Z,5.10
2019-03-13T22:17:18.680Z,4.90
2019-03-13T22:19:48.747Z,4.70
2019-03-13T22:22:23.381Z,4.60
2019-03-13T22:24:57.593Z,4.50
2019-03-13T22:27:28.967Z,4.50
2019-03-13T22:30:01.432Z,4.40
2019-03-13T22:32:31.939Z,4.50
2019-03-13T22:35:01.950Z,4.50
2019-03-13T22:37:32.007Z,4.60
2019-03-13T22:40:03.280Z,4.60
2019-03-13T22:42:33.273Z,4.60
2019-03-13T22:45:07.380Z,4.60
2019-03-13T22:47:43.046Z,4.50
2019-03-13T22:50:12.924Z,4.50
2019-03-13T22:52:46.462Z,4.40
2019-03-13T22:55:19.180Z,4.40
2019-03-13T22:57:51.798Z,4.30
2019-03-13T23:00:48.086Z,4.20
2019-03-13T23:03:20.019Z,4.20
2019-03-13T23:05:51.911Z,4.10
2019-03-13T23:08:23.465Z,4.00
2019-03-13T23:10:57.204Z,4.00
2019-03-13T23:13:27.302Z,4.10
2019-03-13T23:15:57.414Z,4.10
2019-03-13T23:18:27.477Z,4.10
2019-03-13T23:20:57.563Z,4.10
2019-03-13T23:23:27.668Z,4.00
2019-03-13T23:26:01.608Z,3.90
2019-03-13T23:28:32.342Z,3.80
2019-03-13T23:31:04.344Z,3.80
2019-03-13T23:33:34.192Z,3.80
2019-03-13T23:36:04.262Z,3.90
2019-03-13T23:38:35.447Z,3.90
2019-03-13T23:41:05.442Z,3.90
2019-03-13T23:43:35.446Z,3.90
2019-03-13T23:46:05.534Z,3.90
2019-03-13T23:48:35.546Z,3.90
2019-03-13T23:51:05.593Z,4.00
2019-03-13T23:53:35.651Z,4.10
2019-03-13T23:56:05.797Z,4.20
2019-03-13T23:58:35.964Z,4.20
